North Eaton, Ohio
Current Conditions -  °F | °C
As of 3:53 PM on Monday 22 Dec 2014 (Local Time) from KLPR Reporting Station
Clear Clear  
Wind Chill: 37°   Ceiling: Unl
Heat Index: 42°   Visibility: 9mi
Dew Point: 33°   Wind: 9mph
Humidity: 70%   Direction: 130°SE
Pressure: 29.95"   Gusts: NA
Location:  41.2641°N, 82.0411°W
Report Text: KLPR 222053Z AUTO 13008KT 9SM CLR 06/01 A2995 RMK AO2 SLP148 T00560006 56018 TSNO
Loading
Personal Weather Stations






























Interactive Weather Map New forecast layout! Learn more

10-Day Weather Forecast

Advertisements
Track Severe Weather on mobile